Time;durP1;ratioP1;P1;durP2;ratioP2;P2;SDS_P1;SDS_P2;PMS_P1;PMS_P2;Temp;Humidity;BMP_temperature;BMP_pressure;BME280_temperature;BME280_humidity;BME280_pressure;Samples;Min_cycle;Max_cycle;Signal;HPM_P1;HPM_P2
2023/01/04 00:01:22;;;;;;;22.25;18.42;;;12.70;96.70;;;;;;5070371;28;20044;-74
2023/01/04 00:03:50;;;;;;;25.42;18.67;;;12.70;96.70;;;;;;5078876;28;20113;-74
2023/01/04 00:06:21;;;;;;;27.38;18.27;;;12.60;96.70;;;;;;5058910;28;20680;-74
2023/01/04 00:08:50;;;;;;;20.60;17.23;;;12.70;96.70;;;;;;5049317;28;20079;-74
2023/01/04 00:11:20;;;;;;;31.10;19.17;;;12.70;96.70;;;;;;5062038;28;20586;-74
2023/01/04 00:13:50;;;;;;;26.00;18.13;;;12.70;96.70;;;;;;5071226;28;20044;-74
2023/01/04 00:16:20;;;;;;;24.60;18.02;;;12.70;96.70;;;;;;5068374;28;20105;-74
2023/01/04 00:18:50;;;;;;;21.55;16.40;;;12.70;96.70;;;;;;5060881;28;20048;-73
2023/01/04 00:21:21;;;;;;;21.40;17.15;;;12.70;96.70;;;;;;5077198;28;20183;-74
2023/01/04 00:23:51;;;;;;;19.90;15.80;;;12.70;96.70;;;;;;5075839;28;20054;-73
2023/01/04 00:26:22;;;;;;;20.98;15.32;;;12.70;96.70;;;;;;5060278;28;20051;-73
2023/01/04 00:28:53;;;;;;;19.90;15.73;;;12.70;96.70;;;;;;5071155;28;20375;-73
2023/01/04 00:31:23;;;;;;;22.48;15.07;;;12.70;96.70;;;;;;5070531;28;20252;-73
2023/01/04 00:33:53;;;;;;;18.67;14.85;;;12.70;96.70;;;;;;5055031;28;20052;-73
2023/01/04 00:36:24;;;;;;;19.85;14.13;;;12.70;96.70;;;;;;5079446;28;20063;-73
2023/01/04 00:39:13;;;;;;;18.20;15.13;;;12.70;96.70;;;;;;5075779;28;20090;-73
2023/01/04 00:41:43;;;;;;;19.10;14.30;;;12.70;96.70;;;;;;5055608;28;20056;-73
2023/01/04 00:44:29;;;;;;;21.83;14.18;;;12.70;96.70;;;;;;5073182;28;20046;-73
2023/01/04 00:46:59;;;;;;;18.08;13.90;;;12.70;96.70;;;;;;5061100;28;20090;-73
2023/01/04 00:49:28;;;;;;;17.27;13.75;;;12.60;96.70;;;;;;5038936;28;20048;-73
2023/01/04 00:51:58;;;;;;;19.95;14.82;;;12.60;96.70;;;;;;5062465;28;20048;-73
2023/01/04 00:54:28;;;;;;;18.23;13.48;;;12.60;96.70;;;;;;5062730;28;20139;-73
2023/01/04 00:56:57;;;;;;;15.52;12.25;;;12.60;96.70;;;;;;5055688;28;20044;-73
2023/01/04 00:59:26;;;;;;;17.52;13.20;;;12.60;96.70;;;;;;5062506;28;20404;-73
2023/01/04 01:01:54;;;;;;;18.02;13.57;;;12.60;96.70;;;;;;5062607;28;20124;-73
2023/01/04 01:04:23;;;;;;;19.35;14.15;;;12.50;96.70;;;;;;5061919;28;20045;-73
2023/01/04 01:06:52;;;;;;;18.23;12.65;;;12.50;96.70;;;;;;5062336;28;20052;-73
2023/01/04 01:09:22;;;;;;;16.25;12.95;;;12.40;96.70;;;;;;5047281;28;20067;-72
2023/01/04 01:11:51;;;;;;;15.80;12.55;;;12.40;96.70;;;;;;5062680;28;20052;-73
2023/01/04 01:14:24;;;;;;;16.30;12.27;;;12.40;96.70;;;;;;5055391;28;20053;-73
2023/01/04 01:16:53;;;;;;;17.00;12.88;;;12.40;96.70;;;;;;5053595;28;20043;-72
2023/01/04 01:19:27;;;;;;;16.58;12.68;;;12.40;96.70;;;;;;5061582;28;20050;-72
2023/01/04 01:21:56;;;;;;;14.75;11.93;;;12.40;96.70;;;;;;5055487;28;20057;-73
2023/01/04 01:24:27;;;;;;;15.35;11.85;;;12.40;96.70;;;;;;5047941;28;20040;-73
2023/01/04 01:26:56;;;;;;;17.83;12.80;;;12.30;96.70;;;;;;5042824;28;20044;-72
2023/01/04 01:29:24;;;;;;;15.00;11.57;;;12.30;96.70;;;;;;5031001;28;20390;-73
2023/01/04 01:31:53;;;;;;;15.63;11.20;;;12.30;96.70;;;;;;5052766;28;20506;-72
2023/01/04 01:34:21;;;;;;;15.30;11.35;;;12.20;96.70;;;;;;5059991;28;20409;-72
2023/01/04 01:36:50;;;;;;;14.57;11.52;;;12.30;96.70;;;;;;5048760;28;20113;-73
2023/01/04 01:39:18;;;;;;;16.80;12.02;;;12.30;96.70;;;;;;5046083;28;20060;-73
2023/01/04 01:41:48;;;;;;;18.77;11.93;;;12.20;96.70;;;;;;5061263;28;20045;-73
2023/01/04 01:44:56;;;;;;;13.88;11.95;;;12.20;96.70;;;;;;5045250;28;20177;-73
2023/01/04 01:47:28;;;;;;;17.03;11.77;;;12.20;96.70;;;;;;5061619;28;20043;-73
2023/01/04 01:49:56;;;;;;;13.23;11.63;;;12.20;96.70;;;;;;5070349;28;20079;-73
2023/01/04 01:52:30;;;;;;;15.55;12.02;;;12.20;96.70;;;;;;5057592;28;20040;-73
2023/01/04 01:55:01;;;;;;;15.70;11.90;;;12.10;96.70;;;;;;5056907;28;20568;-73
2023/01/04 01:57:33;;;;;;;17.38;11.80;;;12.10;96.70;;;;;;5054299;28;20981;-73
2023/01/04 02:00:06;;;;;;;16.23;11.82;;;12.00;96.70;;;;;;5080258;28;20148;-73
2023/01/04 02:02:48;;;;;;;14.48;11.95;;;12.00;96.70;;;;;;5074775;28;20044;-73
2023/01/04 02:05:19;;;;;;;17.00;12.50;;;12.00;96.70;;;;;;5056545;28;20597;-73
2023/01/04 02:07:49;;;;;;;14.77;10.77;;;12.00;96.70;;;;;;5076427;28;20050;-73
2023/01/04 02:10:18;;;;;;;15.20;11.60;;;12.00;96.70;;;;;;5034769;28;20048;-73
2023/01/04 02:12:51;;;;;;;16.15;11.20;;;12.10;96.70;;;;;;5073142;28;20040;-73
2023/01/04 02:15:22;;;;;;;15.63;12.23;;;12.10;96.70;;;;;;5067930;28;20131;-72
2023/01/04 02:17:58;;;;;;;16.90;12.20;;;12.20;96.70;;;;;;5052344;28;20052;-72
2023/01/04 02:20:35;;;;;;;17.90;13.18;;;12.20;96.70;;;;;;5029553;28;20130;-73
2023/01/04 02:23:33;;;;;;;19.77;11.82;;;12.10;96.70;;;;;;5064898;28;20078;-72
2023/01/04 02:26:47;;;;;;;16.40;12.38;;;12.10;96.70;;;;;;5079677;28;20135;-73
2023/01/04 02:29:53;;;;;;;16.75;12.32;;;12.10;96.70;;;;;;5048377;28;20260;-72
2023/01/04 02:32:37;;;;;;;15.27;12.25;;;12.10;96.70;;;;;;5067149;28;20047;-73
2023/01/04 02:35:16;;;;;;;13.93;11.48;;;12.10;96.70;;;;;;5062246;28;20048;-72
2023/01/04 02:37:49;;;;;;;16.00;12.07;;;12.00;96.70;;;;;;5059899;28;20093;-72
2023/01/04 02:40:24;;;;;;;15.65;11.55;;;12.00;96.70;;;;;;5044246;28;20137;-73
2023/01/04 02:45:53;;;;;;;13.10;11.15;;;12.00;96.70;;;;;;5069497;28;20055;-72
2023/01/04 02:51:27;;;;;;;13.57;11.25;;;12.00;96.70;;;;;;5061224;28;20146;-72
2023/01/04 02:53:56;;;;;;;16.25;11.27;;;11.90;96.70;;;;;;5034764;28;20459;-72
2023/01/04 02:56:38;;;;;;;14.30;11.20;;;11.90;96.70;;;;;;5075258;28;21347;-72
2023/01/04 02:59:26;;;;;;;15.23;11.23;;;11.90;96.70;;;;;;5081969;28;20048;-72
2023/01/04 03:07:53;;;;;;;19.48;12.13;;;11.90;96.70;;;;;;5080395;28;20519;-73
2023/01/04 03:10:31;;;;;;;16.15;12.00;;;11.80;96.70;;;;;;5066256;28;20454;-72
2023/01/04 03:13:07;;;;;;;14.82;11.88;;;11.90;96.70;;;;;;5039353;28;20047;-73
2023/01/04 03:15:39;;;;;;;17.15;11.57;;;11.80;96.70;;;;;;5081775;28;20182;-73
2023/01/04 03:18:12;;;;;;;13.88;10.90;;;11.90;96.70;;;;;;5045688;28;20401;-72
2023/01/04 03:20:43;;;;;;;14.52;10.55;;;11.90;96.70;;;;;;5075026;28;20071;-73
2023/01/04 03:37:24;;;;;;;13.82;10.32;;;11.90;96.70;;;;;;5057004;28;20048;-72
2023/01/04 03:48:42;;;;;;;17.88;12.25;;;11.80;96.70;;;;;;5059285;28;20055;-72
2023/01/04 03:51:13;;;;;;;17.15;11.90;;;11.80;96.70;;;;;;5054855;28;20076;-72
2023/01/04 03:53:53;;;;;;;18.50;11.43;;;11.80;96.70;;;;;;5045451;28;20071;-73
2023/01/04 03:56:23;;;;;;;15.70;12.13;;;11.80;96.70;;;;;;5049136;28;20048;-72
2023/01/04 03:58:53;;;;;;;14.95;11.52;;;11.80;96.70;;;;;;5063546;28;20113;-72
2023/01/04 04:01:24;;;;;;;19.70;12.90;;;11.80;96.70;;;;;;5063961;28;20120;-72
2023/01/04 04:09:27;;;;;;;16.63;11.30;;;11.60;96.70;;;;;;5051920;28;20048;-72
2023/01/04 04:11:55;;;;;;;18.75;12.35;;;11.60;96.70;;;;;;5041078;28;20048;-72
2023/01/04 04:14:23;;;;;;;18.75;11.50;;;11.50;96.70;;;;;;5045575;28;20052;-72
2023/01/04 04:16:51;;;;;;;25.98;11.80;;;11.40;96.70;;;;;;5063541;28;20047;-72
2023/01/04 04:19:19;;;;;;;15.70;11.43;;;11.40;96.70;;;;;;5041566;28;20044;-72
2023/01/04 04:21:47;;;;;;;18.25;12.38;;;11.30;96.70;;;;;;5046613;28;20501;-72
2023/01/04 04:24:18;;;;;;;17.25;11.57;;;11.40;96.70;;;;;;5046983;28;20560;-72
2023/01/04 04:26:47;;;;;;;16.35;11.50;;;11.40;96.70;;;;;;5063357;28;20402;-73
2023/01/04 04:29:15;;;;;;;15.82;11.10;;;11.40;96.70;;;;;;5056668;28;20504;-72
2023/01/04 04:31:43;;;;;;;14.15;10.82;;;11.30;96.70;;;;;;5061958;28;20079;-72
2023/01/04 04:34:11;;;;;;;13.68;10.82;;;11.30;96.70;;;;;;5054742;28;20462;-72
2023/01/04 04:36:39;;;;;;;13.75;11.00;;;11.30;96.70;;;;;;5063217;28;20103;-72
2023/01/04 04:39:07;;;;;;;13.80;11.07;;;11.20;96.70;;;;;;5053835;28;20049;-73
2023/01/04 04:41:38;;;;;;;17.42;10.98;;;11.20;96.70;;;;;;5063132;28;20045;-72
2023/01/04 04:44:09;;;;;;;11.60;10.23;;;11.20;96.70;;;;;;5050829;28;20055;-72
2023/01/04 04:46:37;;;;;;;11.95;10.55;;;11.20;96.70;;;;;;5063082;28;20053;-72
2023/01/04 04:49:06;;;;;;;13.23;10.52;;;11.10;96.70;;;;;;5063902;28;20059;-72
2023/01/04 04:51:34;;;;;;;15.18;9.90;;;11.10;96.70;;;;;;5059468;28;20140;-72
2023/01/04 04:54:04;;;;;;;11.88;9.85;;;11.10;96.70;;;;;;5043795;28;20051;-73
2023/01/04 04:56:40;;;;;;;11.10;9.65;;;11.10;96.70;;;;;;5073553;28;20436;-73
2023/01/04 04:59:09;;;;;;;12.55;9.35;;;11.10;96.70;;;;;;5056511;28;20032;-72
2023/01/04 05:01:37;;;;;;;11.48;9.98;;;11.10;96.70;;;;;;5057933;28;20066;-72
2023/01/04 05:04:05;;;;;;;12.25;10.35;;;11.00;96.70;;;;;;5056065;28;20076;-72
2023/01/04 05:06:36;;;;;;;16.45;11.38;;;11.00;96.70;;;;;;5063040;28;20052;-73
2023/01/04 05:09:04;;;;;;;14.73;10.57;;;11.00;96.70;;;;;;5060742;28;20401;-72
2023/01/04 05:14:20;;;;;;;15.23;12.05;;;10.90;96.70;;;;;;5076724;28;20096;-73
2023/01/04 05:16:48;;;;;;;15.15;10.90;;;10.90;96.70;;;;;;5059183;28;20127;-72
2023/01/04 05:19:16;;;;;;;15.35;10.75;;;10.90;96.70;;;;;;5038509;28;20044;-72
2023/01/04 05:21:44;;;;;;;11.70;10.23;;;10.90;96.70;;;;;;5079480;28;20040;-72
2023/01/04 05:24:12;;;;;;;12.00;10.32;;;10.80;96.70;;;;;;5081258;28;20052;-72
2023/01/04 05:26:40;;;;;;;12.82;10.32;;;10.80;96.70;;;;;;5066322;28;20048;-72
2023/01/04 05:30:49;;;;;;;12.02;10.60;;;10.80;96.70;;;;;;5076593;28;20040;-72
2023/01/04 05:32:00;;;;;;;11.82;10.13;;;10.80;96.70;;;;;;5070926;28;20124;-73
2023/01/04 05:34:28;;;;;;;13.00;10.20;;;10.90;96.70;;;;;;5078803;28;20051;-72
2023/01/04 05:36:56;;;;;;;11.50;9.77;;;10.90;96.70;;;;;;5071675;28;20482;-74
2023/01/04 05:39:24;;;;;;;14.90;11.38;;;10.90;96.70;;;;;;5071448;28;20158;-73
2023/01/04 05:44:38;;;;;;;23.05;13.48;;;10.90;96.70;;;;;;5075799;28;21255;-73
2023/01/04 05:47:08;;;;;;;14.38;10.60;;;10.80;96.70;;;;;;5030779;28;20611;-74
2023/01/04 05:49:41;;;;;;;15.93;11.57;;;10.80;96.70;;;;;;5071652;28;20052;-73
2023/01/04 05:52:09;;;;;;;17.00;12.18;;;10.80;96.70;;;;;;5059478;28;20143;-74
2023/01/04 05:54:38;;;;;;;14.20;10.75;;;10.80;96.70;;;;;;5049584;28;20527;-74
2023/01/04 05:57:05;;;;;;;13.68;10.63;;;10.80;96.70;;;;;;5054342;28;20109;-74
2023/01/04 05:59:33;;;;;;;13.27;10.40;;;10.80;96.70;;;;;;5054640;28;20046;-73
2023/01/04 06:02:14;;;;;;;12.82;9.88;;;10.70;96.70;;;;;;5065329;28;20136;-73
2023/01/04 06:04:42;;;;;;;13.23;10.00;;;10.70;96.70;;;;;;5061195;28;20127;-74
2023/01/04 06:07:10;;;;;;;12.38;10.32;;;10.70;96.70;;;;;;5062520;28;20029;-74
2023/01/04 06:09:38;;;;;;;11.82;9.75;;;10.70;96.70;;;;;;5061999;28;20055;-74
2023/01/04 06:12:06;;;;;;;11.90;9.57;;;10.70;96.70;;;;;;5077656;28;20493;-74
2023/01/04 06:14:34;;;;;;;10.10;8.98;;;10.70;96.70;;;;;;5082697;28;20104;-74
2023/01/04 06:17:03;;;;;;;11.45;9.30;;;10.80;96.70;;;;;;5058778;28;20039;-73
2023/01/04 06:19:32;;;;;;;9.82;8.23;;;10.80;96.70;;;;;;5048606;28;20068;-73
2023/01/04 06:22:00;;;;;;;11.00;8.80;;;10.80;96.70;;;;;;5065706;28;21388;-73
2023/01/04 06:24:28;;;;;;;11.10;8.95;;;10.80;96.70;;;;;;5062186;28;20051;-74
2023/01/04 06:26:56;;;;;;;10.38;9.15;;;10.80;96.70;;;;;;5078258;28;20501;-74
2023/01/04 06:29:24;;;;;;;11.45;9.65;;;10.70;96.70;;;;;;5059752;28;20051;-74
2023/01/04 06:31:52;;;;;;;11.65;9.80;;;10.70;96.70;;;;;;5067720;28;20064;-73
2023/01/04 06:34:19;;;;;;;11.75;9.38;;;10.70;96.70;;;;;;5060730;28;20058;-74
2023/01/04 06:36:58;;;;;;;11.35;9.88;;;10.70;96.70;;;;;;5065591;28;20032;-73
2023/01/04 06:39:26;;;;;;;13.52;10.43;;;10.70;96.70;;;;;;5055402;28;20036;-74
2023/01/04 06:41:54;;;;;;;13.73;10.32;;;10.60;96.70;;;;;;5059895;28;20079;-73
2023/01/04 06:44:32;;;;;;;11.82;9.65;;;10.70;96.70;;;;;;5064368;28;20048;-71
2023/01/04 06:47:00;;;;;;;11.65;8.85;;;10.70;96.70;;;;;;5059805;28;20044;-74
2023/01/04 06:49:27;;;;;;;10.98;8.45;;;10.70;96.70;;;;;;5077777;28;20616;-73
2023/01/04 06:51:57;;;;;;;9.55;8.18;;;10.60;96.70;;;;;;5040046;28;20074;-74
2023/01/04 06:54:25;;;;;;;9.95;8.43;;;10.60;96.70;;;;;;5058652;28;20044;-74
2023/01/04 06:56:53;;;;;;;9.65;8.70;;;10.60;96.70;;;;;;5041944;28;20063;-74
2023/01/04 06:59:21;;;;;;;10.75;8.98;;;10.50;96.70;;;;;;5063309;28;20036;-73
2023/01/04 07:01:49;;;;;;;10.75;8.80;;;10.50;96.70;;;;;;5058987;28;20088;-75
2023/01/04 07:04:17;;;;;;;8.65;7.50;;;10.50;96.70;;;;;;5037611;28;20051;-74
2023/01/04 07:06:45;;;;;;;13.15;9.27;;;10.50;96.70;;;;;;5059645;28;20498;-74
2023/01/04 07:09:14;;;;;;;10.63;8.43;;;10.50;96.70;;;;;;5055379;28;20502;-74
2023/01/04 07:11:42;;;;;;;10.50;8.20;;;10.50;96.70;;;;;;5073854;28;20041;-74
2023/01/04 07:14:10;;;;;;;10.25;8.65;;;10.50;96.70;;;;;;5056204;28;20163;-73
2023/01/04 07:16:38;;;;;;;9.82;8.45;;;10.40;96.70;;;;;;5078020;28;20047;-73
2023/01/04 07:19:07;;;;;;;10.55;8.60;;;10.40;96.70;;;;;;5050514;28;20497;-75
2023/01/04 07:21:35;;;;;;;9.00;8.10;;;10.40;96.70;;;;;;5049083;28;20456;-74
2023/01/04 07:24:03;;;;;;;10.20;9.23;;;10.40;96.70;;;;;;5079123;28;20039;-75
2023/01/04 07:26:34;;;;;;;8.93;8.02;;;10.40;96.70;;;;;;5035844;28;20068;-73
2023/01/04 07:29:15;;;;;;;10.00;7.55;;;10.30;96.70;;;;;;5069901;28;20043;-74
2023/01/04 07:31:46;;;;;;;9.15;8.10;;;10.40;96.70;;;;;;5054730;28;20053;-73
2023/01/04 07:34:15;;;;;;;10.02;8.57;;;10.30;96.70;;;;;;5050791;28;20049;-74
2023/01/04 07:36:43;;;;;;;10.38;8.95;;;10.30;96.70;;;;;;5058101;28;20101;-74
2023/01/04 07:39:11;;;;;;;9.10;8.18;;;10.40;96.70;;;;;;5046198;28;20405;-74
2023/01/04 07:41:41;;;;;;;10.50;9.05;;;10.40;96.70;;;;;;5056910;28;20045;-75
2023/01/04 07:44:10;;;;;;;12.65;9.65;;;10.30;96.70;;;;;;5072499;28;20466;-73
2023/01/04 07:46:39;;;;;;;10.93;9.30;;;10.40;96.70;;;;;;5048309;28;20055;-74
2023/01/04 07:49:09;;;;;;;10.02;9.02;;;10.40;96.70;;;;;;5067738;28;20035;-74
2023/01/04 07:51:44;;;;;;;11.73;8.55;;;10.40;96.70;;;;;;5061355;28;20105;-73
2023/01/04 07:54:12;;;;;;;12.30;8.63;;;10.40;96.70;;;;;;5062927;28;20037;-75
2023/01/04 07:56:42;;;;;;;11.30;8.57;;;10.40;96.70;;;;;;5045547;28;20048;-73
2023/01/04 07:59:11;;;;;;;12.05;8.85;;;10.50;96.70;;;;;;5049632;28;20064;-73
2023/01/04 08:01:39;;;;;;;13.45;8.32;;;10.50;96.70;;;;;;5046592;28;20048;-74
2023/01/04 08:04:08;;;;;;;11.00;8.40;;;10.60;96.70;;;;;;5030987;28;20049;-75
2023/01/04 08:06:37;;;;;;;11.10;8.02;;;10.50;96.70;;;;;;5042510;28;20505;-75
2023/01/04 08:09:05;;;;;;;12.73;9.00;;;10.40;96.70;;;;;;5047773;28;20045;-74
2023/01/04 08:11:35;;;;;;;12.88;9.00;;;10.50;96.70;;;;;;5055191;28;20047;-73
2023/01/04 08:14:04;;;;;;;12.50;9.38;;;10.60;96.70;;;;;;5036035;28;20442;-75
2023/01/04 08:16:34;;;;;;;47.55;41.78;;;10.60;96.70;;;;;;5043634;28;20072;-75
2023/01/04 08:19:04;;;;;;;21.00;15.93;;;10.70;96.70;;;;;;5043067;28;20064;-73
2023/01/04 08:21:34;;;;;;;16.65;12.95;;;10.70;96.70;;;;;;5061786;28;20036;-75
2023/01/04 08:24:03;;;;;;;20.08;14.43;;;10.70;96.70;;;;;;5046984;28;20049;-75
2023/01/04 08:26:31;;;;;;;20.33;12.70;;;10.70;96.70;;;;;;5047225;28;20052;-74
2023/01/04 08:28:59;;;;;;;17.65;12.30;;;10.70;96.70;;;;;;5043524;28;20118;-74
2023/01/04 08:31:30;;;;;;;16.98;11.07;;;10.80;96.70;;;;;;5044694;28;20114;-77
2023/01/04 08:34:01;;;;;;;16.02;11.00;;;10.80;96.70;;;;;;5051092;28;20045;-76
2023/01/04 08:36:31;;;;;;;13.35;10.32;;;10.80;96.70;;;;;;5045808;28;20712;-75
2023/01/04 08:39:00;;;;;;;12.40;9.65;;;10.90;96.70;;;;;;5062262;28;20410;-77
2023/01/04 08:41:30;;;;;;;12.50;9.43;;;10.90;96.70;;;;;;5063018;28;20345;-74
2023/01/04 08:44:18;;;;;;;11.75;9.20;;;11.00;96.70;;;;;;5032085;28;20048;-75
2023/01/04 08:46:49;;;;;;;10.50;9.40;;;11.10;96.70;;;;;;5030047;28;20722;-75
2023/01/04 08:49:17;;;;;;;11.27;9.45;;;11.20;96.70;;;;;;5062131;28;20044;-75
2023/01/04 08:51:46;;;;;;;13.30;9.93;;;11.20;96.70;;;;;;5044289;28;20040;-75
2023/01/04 08:54:14;;;;;;;12.25;10.57;;;11.30;96.70;;;;;;5034264;28;20056;-75
2023/01/04 08:56:42;;;;;;;12.95;10.55;;;11.40;96.70;;;;;;5044510;28;20584;-75
2023/01/04 08:59:11;;;;;;;13.18;10.95;;;11.40;96.70;;;;;;5044741;28;20049;-72
2023/01/04 09:01:40;;;;;;;12.93;10.00;;;11.50;96.70;;;;;;5061625;28;20437;-73
2023/01/04 09:04:09;;;;;;;12.05;10.10;;;11.60;96.70;;;;;;5061986;28;20051;-72
2023/01/04 09:06:37;;;;;;;12.02;10.50;;;11.60;96.70;;;;;;5061269;28;20032;-74
2023/01/04 09:09:05;;;;;;;16.15;10.45;;;11.60;96.70;;;;;;5046477;28;20882;-73
2023/01/04 09:11:34;;;;;;;10.82;9.57;;;11.70;96.70;;;;;;5041293;28;20071;-73
2023/01/04 09:14:02;;;;;;;11.15;9.07;;;11.70;96.70;;;;;;5046584;28;20415;-72
2023/01/04 09:16:36;;;;;;;11.88;9.40;;;11.80;96.70;;;;;;5062117;28;20036;-72
2023/01/04 09:19:04;;;;;;;11.95;10.25;;;11.90;96.70;;;;;;5061649;28;20059;-73
2023/01/04 09:21:34;;;;;;;12.45;11.07;;;11.90;96.70;;;;;;5041964;28;20045;-72
2023/01/04 09:24:02;;;;;;;10.63;9.32;;;12.00;96.70;;;;;;5061757;28;20075;-73
2023/01/04 09:26:30;;;;;;;11.77;9.38;;;12.10;96.70;;;;;;5061530;28;20097;-73
2023/01/04 09:28:58;;;;;;;11.05;9.80;;;12.10;96.70;;;;;;5045121;28;20502;-73
2023/01/04 09:31:27;;;;;;;14.75;10.50;;;12.10;96.70;;;;;;5047631;28;20091;-73
2023/01/04 09:33:56;;;;;;;11.68;10.18;;;12.20;96.70;;;;;;5053099;28;20068;-75
2023/01/04 09:36:46;;;;;;;123.35;100.05;;;12.30;96.70;;;;;;5056374;28;20067;-72
2023/01/04 09:39:15;;;;;;;27.98;23.25;;;12.40;96.70;;;;;;5054727;28;20096;-73
2023/01/04 09:41:56;;;;;;;30.05;24.38;;;12.60;96.70;;;;;;5061796;28;20086;-74
2023/01/04 09:44:35;;;;;;;34.05;26.48;;;12.70;96.70;;;;;;5040419;28;20055;-74
2023/01/04 09:47:31;;;;;;;38.80;28.27;;;12.80;96.70;;;;;;5054992;28;20406;-74
2023/01/04 09:50:04;;;;;;;23.48;18.48;;;12.90;96.70;;;;;;5059719;28;20402;-74
2023/01/04 09:52:42;;;;;;;20.42;15.52;;;12.90;96.70;;;;;;5043031;28;20128;-73
2023/01/04 09:55:19;;;;;;;18.25;13.80;;;13.00;96.70;;;;;;5060366;28;20048;-74
2023/01/04 09:58:21;;;;;;;14.60;12.60;;;13.10;96.70;;;;;;5059462;28;20398;-74
2023/01/04 10:00:54;;;;;;;15.43;12.30;;;13.20;96.70;;;;;;5057571;28;21384;-74
2023/01/04 10:03:26;;;;;;;14.77;12.43;;;13.30;96.70;;;;;;5061474;28;20461;-74
2023/01/04 10:05:55;;;;;;;16.23;12.30;;;13.40;96.70;;;;;;5034149;28;20060;-72
2023/01/04 10:08:24;;;;;;;13.80;11.90;;;13.50;96.70;;;;;;5058846;28;20047;-72
2023/01/04 10:11:04;;;;;;;14.98;12.93;;;13.60;96.70;;;;;;5050464;28;20049;-73
2023/01/04 10:13:46;;;;;;;15.80;12.15;;;13.70;96.70;;;;;;5060999;28;20040;-74
2023/01/04 10:16:21;;;;;;;15.52;11.40;;;13.80;96.70;;;;;;5043401;28;20052;-74
2023/01/04 10:19:23;;;;;;;14.60;12.20;;;13.80;96.70;;;;;;5060900;28;20048;-74
2023/01/04 10:22:19;;;;;;;12.95;11.57;;;13.90;96.70;;;;;;5044966;28;20036;-73
2023/01/04 10:24:59;;;;;;;15.65;11.65;;;14.00;96.70;;;;;;5060948;28;20502;-74
2023/01/04 10:27:39;;;;;;;13.90;12.25;;;14.10;96.70;;;;;;5030022;28;20040;-74
2023/01/04 10:30:25;;;;;;;15.70;12.32;;;14.20;96.70;;;;;;5056099;28;20052;-75
2023/01/04 10:33:03;;;;;;;18.65;13.30;;;14.20;96.70;;;;;;5061214;28;20044;-75
2023/01/04 10:35:33;;;;;;;13.68;11.23;;;14.20;96.70;;;;;;5058949;28;20059;-73
2023/01/04 10:38:09;;;;;;;15.07;12.15;;;14.30;96.70;;;;;;5038403;28;20072;-76
2023/01/04 10:40:39;;;;;;;22.33;17.25;;;14.40;96.70;;;;;;5040538;28;20043;-75
2023/01/04 10:43:15;;;;;;;25.88;19.58;;;14.40;96.70;;;;;;5040590;28;20037;-75
2023/01/04 10:45:50;;;;;;;23.23;18.17;;;14.50;96.70;;;;;;5051574;28;20063;-74
2023/01/04 10:48:23;;;;;;;21.27;18.38;;;14.60;96.70;;;;;;5056941;28;20450;-75
2023/01/04 10:50:57;;;;;;;27.42;21.38;;;14.70;96.70;;;;;;5056158;28;20098;-73
2023/01/04 10:53:40;;;;;;;29.52;21.52;;;14.70;96.70;;;;;;5063349;28;20127;-72
2023/01/04 10:56:19;;;;;;;23.92;18.52;;;14.80;96.70;;;;;;5063264;28;20040;-72
2023/01/04 10:58:58;;;;;;;22.33;18.70;;;14.90;96.70;;;;;;5061561;28;20044;-72
2023/01/04 11:01:32;;;;;;;26.77;17.48;;;15.00;96.70;;;;;;5063796;28;20504;-73
2023/01/04 11:04:04;;;;;;;19.95;16.13;;;15.00;96.70;;;;;;5050548;28;20043;-72
2023/01/04 11:06:39;;;;;;;25.98;18.02;;;15.10;96.70;;;;;;5063357;28;20047;-72
2023/01/04 11:09:14;;;;;;;20.95;17.05;;;15.20;96.70;;;;;;5063915;28;20051;-72
2023/01/04 11:11:55;;;;;;;24.33;18.80;;;15.30;96.70;;;;;;5051908;28;20441;-73
2023/01/04 11:14:24;;;;;;;20.13;15.18;;;15.40;96.70;;;;;;5045485;28;20048;-72
2023/01/04 11:16:58;;;;;;;18.10;15.05;;;15.40;96.70;;;;;;5063968;28;20036;-72
2023/01/04 11:19:28;;;;;;;18.20;14.43;;;15.40;96.70;;;;;;5062285;28;20686;-72
2023/01/04 11:22:00;;;;;;;17.05;14.70;;;15.40;96.70;;;;;;5043072;28;20036;-72
2023/01/04 11:24:33;;;;;;;16.08;13.90;;;15.50;96.70;;;;;;5058249;28;20483;-72
2023/01/04 11:27:10;;;;;;;15.82;13.60;;;15.50;96.70;;;;;;5029986;28;20049;-73
2023/01/04 11:29:43;;;;;;;16.85;14.43;;;15.60;96.70;;;;;;5063389;28;20063;-73
2023/01/04 11:32:18;;;;;;;15.98;13.23;;;15.70;96.70;;;;;;5063973;28;20047;-72
2023/01/04 11:34:50;;;;;;;16.65;13.02;;;15.70;96.70;;;;;;5063233;28;20045;-73
2023/01/04 11:37:34;;;;;;;17.13;12.70;;;15.80;96.70;;;;;;5062569;28;20131;-72
2023/01/04 11:40:23;;;;;;;15.00;12.55;;;15.90;96.70;;;;;;5047576;28;20041;-73
2023/01/04 11:43:11;;;;;;;17.67;12.38;;;16.00;96.70;;;;;;5055642;28;20043;-72
2023/01/04 11:45:39;;;;;;;15.57;12.57;;;16.10;96.70;;;;;;5049730;28;20505;-71
2023/01/04 11:48:14;;;;;;;14.75;11.88;;;16.20;96.70;;;;;;5059491;28;20037;-72
2023/01/04 11:50:43;;;;;;;79.10;62.38;;;16.40;96.70;;;;;;5053074;28;20053;-72
2023/01/04 11:53:30;;;;;;;15.70;14.10;;;16.50;96.70;;;;;;5025578;28;20072;-73
2023/01/04 11:56:14;;;;;;;19.23;14.60;;;16.60;96.70;;;;;;5033385;28;20049;-73
2023/01/04 11:59:01;;;;;;;17.00;12.77;;;16.60;96.70;;;;;;5042277;28;20591;-72
2023/01/04 12:01:34;;;;;;;15.00;10.73;;;16.70;96.70;;;;;;5058583;28;20047;-74
2023/01/04 12:04:08;;;;;;;13.50;10.68;;;16.70;96.70;;;;;;5046296;28;20036;-71
2023/01/04 12:06:40;;;;;;;15.27;10.32;;;16.80;96.70;;;;;;5036619;28;20491;-71
2023/01/04 12:09:41;;;;;;;13.90;10.48;;;16.80;96.70;;;;;;5041410;28;20040;-72
2023/01/04 12:12:11;;;;;;;13.23;10.32;;;16.90;96.70;;;;;;4996707;28;20036;-73
2023/01/04 12:14:48;;;;;;;13.77;9.90;;;16.80;96.70;;;;;;5033215;28;20052;-72
2023/01/04 12:17:22;;;;;;;13.85;10.15;;;17.00;96.70;;;;;;5025835;28;20136;-73
2023/01/04 12:19:53;;;;;;;13.13;9.63;;;17.10;96.70;;;;;;5045242;28;20139;-73
2023/01/04 12:22:29;;;;;;;10.90;9.07;;;17.20;96.70;;;;;;5056171;28;20170;-73
2023/01/04 12:24:58;;;;;;;12.52;9.50;;;17.30;96.70;;;;;;5042381;28;20402;-73
2023/01/04 12:27:28;;;;;;;11.80;9.13;;;17.30;96.70;;;;;;5053612;28;20094;-73
2023/01/04 12:30:00;;;;;;;14.57;9.80;;;17.30;96.70;;;;;;5060320;28;20036;-73
2023/01/04 12:32:42;;;;;;;11.13;8.35;;;17.40;96.70;;;;;;5054206;28;20105;-72
2023/01/04 12:35:59;;;;;;;11.18;8.23;;;17.50;96.70;;;;;;5046306;28;20114;-72
2023/01/04 12:39:00;;;;;;;12.13;9.30;;;17.60;96.70;;;;;;5045834;28;20105;-73
2023/01/04 12:42:14;;;;;;;11.77;8.00;;;17.70;96.70;;;;;;5062992;28;20448;-73
2023/01/04 12:45:19;;;;;;;10.25;8.13;;;17.70;96.70;;;;;;5045373;28;20037;-73
2023/01/04 12:51:19;;;;;;;9.50;7.40;;;17.80;96.70;;;;;;5060608;28;20054;-74
2023/01/04 12:54:30;;;;;;;8.80;7.45;;;17.90;96.70;;;;;;5053597;28;20048;-72
2023/01/04 12:57:23;;;;;;;12.57;7.60;;;17.90;96.70;;;;;;5046711;28;20028;-72
2023/01/04 12:59:56;;;;;;;13.52;7.90;;;17.90;96.70;;;;;;5049076;28;20036;-72
2023/01/04 13:02:25;;;;;;;13.05;7.15;;;18.00;96.70;;;;;;5048292;28;20310;-74
2023/01/04 13:04:56;;;;;;;9.57;7.47;;;18.10;96.70;;;;;;5062141;28;20474;-72
2023/01/04 13:07:47;;;;;;;15.00;7.72;;;18.00;96.70;;;;;;5044083;28;20068;-72
2023/01/04 13:10:25;;;;;;;9.23;7.18;;;18.10;96.70;;;;;;5062576;28;20388;-73
2023/01/04 13:13:18;;;;;;;12.00;8.05;;;18.10;96.70;;;;;;5051464;28;20044;-72
2023/01/04 13:15:56;;;;;;;10.48;7.13;;;18.20;96.70;;;;;;5051191;28;20110;-72
2023/01/04 13:18:34;;;;;;;11.60;8.20;;;18.10;96.70;;;;;;5060998;28;20044;-72
2023/01/04 13:21:12;;;;;;;9.48;7.38;;;18.10;96.70;;;;;;5055683;28;20048;-72
2023/01/04 13:23:47;;;;;;;12.15;7.90;;;18.00;96.70;;;;;;5029657;28;20048;-71
2023/01/04 13:26:33;;;;;;;9.93;7.05;;;18.00;96.70;;;;;;5046070;28;20075;-71
2023/01/04 13:29:20;;;;;;;9.60;6.82;;;18.10;96.70;;;;;;5048224;28;20044;-73
2023/01/04 13:31:55;;;;;;;12.65;7.85;;;18.00;96.70;;;;;;5037945;28;20055;-73
2023/01/04 13:34:31;;;;;;;9.45;7.10;;;17.90;96.70;;;;;;5028611;28;20944;-74
2023/01/04 13:37:07;;;;;;;11.20;7.53;;;17.80;96.70;;;;;;5044318;28;20457;-74
2023/01/04 13:39:36;;;;;;;8.48;7.22;;;17.60;96.70;;;;;;5043492;28;20047;-74
2023/01/04 13:42:06;;;;;;;9.07;6.68;;;17.40;96.70;;;;;;5043215;28;20045;-74
2023/01/04 13:45:00;;;;;;;10.35;7.45;;;17.40;96.70;;;;;;5046175;28;20096;-75
2023/01/04 13:47:51;;;;;;;11.43;7.18;;;17.40;96.70;;;;;;5058502;28;20393;-74
2023/01/04 13:50:32;;;;;;;11.45;7.45;;;17.40;96.70;;;;;;5054376;28;20557;-72
2023/01/04 13:53:03;;;;;;;11.00;7.80;;;17.30;96.70;;;;;;5043775;28;20044;-73